sensor_id;sensor_type;location;lat;lon;timestamp;pressure;altitude;pressure_sealevel;temperature;humidity
72548;BME280;60570;50.848;6.776;2023-04-21T00:00:25;100303.06;;;10.28;63.73
72548;BME280;60570;50.848;6.776;2023-04-21T00:01:27;100305.84;;;10.28;63.96
72548;BME280;60570;50.848;6.776;2023-04-21T00:02:29;100306.16;;;10.26;63.58
72548;BME280;60570;50.848;6.776;2023-04-21T00:03:30;100305.84;;;10.28;63.65
72548;BME280;60570;50.848;6.776;2023-04-21T00:04:32;100302.25;;;10.27;63.91
72548;BME280;60570;50.848;6.776;2023-04-21T00:05:35;100299.47;;;10.27;63.39
72548;BME280;60570;50.848;6.776;2023-04-21T00:06:35;100303.72;;;10.25;63.90
72548;BME280;60570;50.848;6.776;2023-04-21T00:07:37;100299.00;;;10.25;63.81
72548;BME280;60570;50.848;6.776;2023-04-21T00:08:38;100298.16;;;10.25;63.82
72548;BME280;60570;50.848;6.776;2023-04-21T00:09:40;100291.81;;;10.24;64.08
72548;BME280;60570;50.848;6.776;2023-04-21T00:10:41;100299.81;;;10.26;63.79
72548;BME280;60570;50.848;6.776;2023-04-21T00:11:43;100306.50;;;10.25;64.11
72548;BME280;60570;50.848;6.776;2023-04-21T00:12:44;100291.47;;;10.26;64.04
72548;BME280;60570;50.848;6.776;2023-04-21T00:13:47;100291.47;;;10.26;63.66
72548;BME280;60570;50.848;6.776;2023-04-21T00:14:47;100287.88;;;10.25;63.66
72548;BME280;60570;50.848;6.776;2023-04-21T00:15:49;100290.19;;;10.23;63.58
72548;BME280;60570;50.848;6.776;2023-04-21T00:16:50;100283.81;;;10.23;64.16
72548;BME280;60570;50.848;6.776;2023-04-21T00:17:52;100286.25;;;10.24;63.70
72548;BME280;60570;50.848;6.776;2023-04-21T00:18:53;100281.50;;;10.25;63.60
72548;BME280;60570;50.848;6.776;2023-04-21T00:19:54;100280.69;;;10.24;64.24
72548;BME280;60570;50.848;6.776;2023-04-21T00:20:55;100273.53;;;10.23;63.90
72548;BME280;60570;50.848;6.776;2023-04-21T00:21:57;100277.13;;;10.24;64.12
72548;BME280;60570;50.848;6.776;2023-04-21T00:22:59;100279.91;;;10.24;63.81
72548;BME280;60570;50.848;6.776;2023-04-21T00:24:00;100274.34;;;10.24;64.17
72548;BME280;60570;50.848;6.776;2023-04-21T00:25:01;100274.34;;;10.24;63.62
72548;BME280;60570;50.848;6.776;2023-04-21T00:26:03;100271.56;;;10.24;63.82
72548;BME280;60570;50.848;6.776;2023-04-21T00:27:04;100275.13;;;10.24;63.83
72548;BME280;60570;50.848;6.776;2023-04-21T00:28:05;100275.13;;;10.24;63.84
72548;BME280;60570;50.848;6.776;2023-04-21T00:29:07;100267.97;;;10.23;64.12
72548;BME280;60570;50.848;6.776;2023-04-21T00:30:10;100271.56;;;10.24;63.96
72548;BME280;60570;50.848;6.776;2023-04-21T00:31:11;100273.53;;;10.23;63.87
72548;BME280;60570;50.848;6.776;2023-04-21T00:32:13;100266.34;;;10.22;64.33
72548;BME280;60570;50.848;6.776;2023-04-21T00:33:13;100271.88;;;10.22;63.71
72548;BME280;60570;50.848;6.776;2023-04-21T00:34:15;100268.31;;;10.22;64.17
72548;BME280;60570;50.848;6.776;2023-04-21T00:35:16;100269.47;;;10.21;63.98
72548;BME280;60570;50.848;6.776;2023-04-21T00:36:17;100271.88;;;10.22;63.73
72548;BME280;60570;50.848;6.776;2023-04-21T00:37:18;100267.50;;;10.21;64.27
72548;BME280;60570;50.848;6.776;2023-04-21T00:38:20;100269.47;;;10.21;64.41
72548;BME280;60570;50.848;6.776;2023-04-21T00:39:20;100263.56;;;10.22;63.89
72548;BME280;60570;50.848;6.776;2023-04-21T00:40:22;100266.34;;;10.22;64.14
72548;BME280;60570;50.848;6.776;2023-04-21T00:41:23;100267.50;;;10.21;63.92
72548;BME280;60570;50.848;6.776;2023-04-21T00:42:24;100268.31;;;10.22;64.01
72548;BME280;60570;50.848;6.776;2023-04-21T00:43:25;100269.13;;;10.22;63.86
72548;BME280;60570;50.848;6.776;2023-04-21T00:44:28;100266.03;;;10.24;63.82
72548;BME280;60570;50.848;6.776;2023-04-21T00:45:29;100267.50;;;10.21;64.18
72548;BME280;60570;50.848;6.776;2023-04-21T00:46:31;100265.56;;;10.22;63.91
72548;BME280;60570;50.848;6.776;2023-04-21T00:47:32;100258.34;;;10.21;64.07
72548;BME280;60570;50.848;6.776;2023-04-21T00:48:34;100263.56;;;10.22;64.07
72548;BME280;60570;50.848;6.776;2023-04-21T00:49:35;100266.34;;;10.22;63.79
72548;BME280;60570;50.848;6.776;2023-04-21T00:50:37;100262.78;;;10.22;63.99
72548;BME280;60570;50.848;6.776;2023-04-21T00:51:38;100261.94;;;10.21;63.72
72548;BME280;60570;50.848;6.776;2023-04-21T00:52:41;100263.91;;;10.21;64.26
72548;BME280;60570;50.848;6.776;2023-04-21T00:53:43;100259.19;;;10.21;64.11
72548;BME280;60570;50.848;6.776;2023-04-21T00:54:45;100261.13;;;10.21;64.18
72548;BME280;60570;50.848;6.776;2023-04-21T00:55:46;100270.63;;;10.20;64.18
72548;BME280;60570;50.848;6.776;2023-04-21T00:56:47;100264.25;;;10.19;64.53
72548;BME280;60570;50.848;6.776;2023-04-21T00:57:49;100263.91;;;10.21;64.26
72548;BME280;60570;50.848;6.776;2023-04-21T00:58:52;100260.31;;;10.20;64.09
72548;BME280;60570;50.848;6.776;2023-04-21T00:59:54;100266.69;;;10.21;64.32
72548;BME280;60570;50.848;6.776;2023-04-21T01:00:56;100269.81;;;10.19;64.30
72548;BME280;60570;50.848;6.776;2023-04-21T01:01:57;100260.66;;;10.19;64.24
72548;BME280;60570;50.848;6.776;2023-04-21T01:02:59;100268.31;;;10.22;64.27
72548;BME280;60570;50.848;6.776;2023-04-21T01:04:02;100260.31;;;10.20;63.88
72548;BME280;60570;50.848;6.776;2023-04-21T01:05:04;100264.59;;;10.18;64.35
72548;BME280;60570;50.848;6.776;2023-04-21T01:06:07;100269.34;;;10.17;64.18
72548;BME280;60570;50.848;6.776;2023-04-21T01:07:09;100265.38;;;10.18;64.54
72548;BME280;60570;50.848;6.776;2023-04-21T01:08:10;100266.22;;;10.19;63.94
72548;BME280;60570;50.848;6.776;2023-04-21T01:09:11;100267.03;;;10.19;64.43
72548;BME280;60570;50.848;6.776;2023-04-21T01:10:12;100266.22;;;10.19;64.31
72548;BME280;60570;50.848;6.776;2023-04-21T01:11:14;100277.78;;;10.21;63.89
72548;BME280;60570;50.848;6.776;2023-04-21T01:12:15;100274.19;;;10.20;63.85
72548;BME280;60570;50.848;6.776;2023-04-21T01:13:18;100270.63;;;10.20;64.38
72548;BME280;60570;50.848;6.776;2023-04-21T01:14:19;100265.88;;;10.20;64.34
72548;BME280;60570;50.848;6.776;2023-04-21T01:15:22;100265.38;;;10.18;64.16
72548;BME280;60570;50.848;6.776;2023-04-21T01:16:23;100275.34;;;10.19;64.36
72548;BME280;60570;50.848;6.776;2023-04-21T01:17:26;100267.84;;;10.20;64.38
72548;BME280;60570;50.848;6.776;2023-04-21T01:18:26;100271.75;;;10.19;64.50
72548;BME280;60570;50.848;6.776;2023-04-21T01:19:31;100270.28;;;10.21;64.15
72548;BME280;60570;50.848;6.776;2023-04-21T01:20:32;100269.81;;;10.19;64.26
72548;BME280;60570;50.848;6.776;2023-04-21T01:21:39;100265.06;;;10.20;64.61
72548;BME280;60570;50.848;6.776;2023-04-21T01:22:41;100265.06;;;10.20;64.20
72548;BME280;60570;50.848;6.776;2023-04-21T01:23:44;100267.38;;;10.18;64.29
72548;BME280;60570;50.848;6.776;2023-04-21T01:24:46;100268.16;;;10.18;64.75
72548;BME280;60570;50.848;6.776;2023-04-21T01:25:49;100266.22;;;10.19;64.12
72548;BME280;60570;50.848;6.776;2023-04-21T01:26:50;100270.63;;;10.20;64.25
72548;BME280;60570;50.848;6.776;2023-04-21T01:27:52;100265.06;;;10.20;64.11
72548;BME280;60570;50.848;6.776;2023-04-21T01:28:55;100263.44;;;10.19;64.66
72548;BME280;60570;50.848;6.776;2023-04-21T01:29:57;100257.88;;;10.19;64.68
72548;BME280;60570;50.848;6.776;2023-04-21T01:30:58;100257.88;;;10.19;64.52
72548;BME280;60570;50.848;6.776;2023-04-21T01:32:02;100262.63;;;10.18;64.09
72548;BME280;60570;50.848;6.776;2023-04-21T01:33:03;100260.66;;;10.19;64.13
72548;BME280;60570;50.848;6.776;2023-04-21T01:34:05;100260.66;;;10.19;64.30
72548;BME280;60570;50.848;6.776;2023-04-21T01:35:07;100252.34;;;10.19;64.45
72548;BME280;60570;50.848;6.776;2023-04-21T01:36:09;100258.34;;;10.21;64.28
72548;BME280;60570;50.848;6.776;2023-04-21T01:37:13;100259.06;;;10.18;64.10
72548;BME280;60570;50.848;6.776;2023-04-21T01:38:15;100257.06;;;10.18;64.16
72548;BME280;60570;50.848;6.776;2023-04-21T01:39:18;100261.47;;;10.19;64.09
72548;BME280;60570;50.848;6.776;2023-04-21T01:40:20;100261.13;;;10.21;64.24
72548;BME280;60570;50.848;6.776;2023-04-21T01:41:20;100259.53;;;10.20;64.44
72548;BME280;60570;50.848;6.776;2023-04-21T01:42:24;100259.19;;;10.21;64.52
72548;BME280;60570;50.848;6.776;2023-04-21T01:43:25;100265.06;;;10.20;64.18
72548;BME280;60570;50.848;6.776;2023-04-21T01:44:26;100267.50;;;10.21;64.53
72548;BME280;60570;50.848;6.776;2023-04-21T01:45:27;100263.09;;;10.20;63.99
72548;BME280;60570;50.848;6.776;2023-04-21T01:46:29;100259.84;;;10.18;64.64
72548;BME280;60570;50.848;6.776;2023-04-21T01:47:29;100259.53;;;10.20;64.02
72548;BME280;60570;50.848;6.776;2023-04-21T01:48:31;100259.84;;;10.18;64.09
72548;BME280;60570;50.848;6.776;2023-04-21T01:49:32;100266.22;;;10.19;64.21
72548;BME280;60570;50.848;6.776;2023-04-21T01:50:34;100270.63;;;10.20;64.53
72548;BME280;60570;50.848;6.776;2023-04-21T01:51:34;100257.53;;;10.20;64.33
72548;BME280;60570;50.848;6.776;2023-04-21T01:52:38;100256.75;;;10.20;64.12
72548;BME280;60570;50.848;6.776;2023-04-21T01:53:38;100257.88;;;10.19;64.13
72548;BME280;60570;50.848;6.776;2023-04-21T01:54:40;100257.88;;;10.19;64.01
72548;BME280;60570;50.848;6.776;2023-04-21T01:55:41;100256.28;;;10.18;64.37
72548;BME280;60570;50.848;6.776;2023-04-21T01:56:42;100258.69;;;10.19;64.35
72548;BME280;60570;50.848;6.776;2023-04-21T01:57:43;100253.16;;;10.19;64.55
72548;BME280;60570;50.848;6.776;2023-04-21T01:58:45;100259.84;;;10.18;64.36
72548;BME280;60570;50.848;6.776;2023-04-21T01:59:45;100254.28;;;10.18;64.10
72548;BME280;60570;50.848;6.776;2023-04-21T02:00:47;100248.75;;;10.18;64.05
72548;BME280;60570;50.848;6.776;2023-04-21T02:01:48;100253.50;;;10.18;64.15
72548;BME280;60570;50.848;6.776;2023-04-21T02:02:50;100247.94;;;10.18;64.66
72548;BME280;60570;50.848;6.776;2023-04-21T02:03:50;100251.50;;;10.18;64.20
72548;BME280;60570;50.848;6.776;2023-04-21T02:04:52;100252.69;;;10.17;64.65
72548;BME280;60570;50.848;6.776;2023-04-21T02:05:53;100255.94;;;10.19;64.30
72548;BME280;60570;50.848;6.776;2023-04-21T02:06:54;100252.69;;;10.17;64.61
72548;BME280;60570;50.848;6.776;2023-04-21T02:07:56;100256.28;;;10.18;64.22
72548;BME280;60570;50.848;6.776;2023-04-21T02:08:58;100255.94;;;10.19;64.22
72548;BME280;60570;50.848;6.776;2023-04-21T02:09:58;100254.28;;;10.18;64.66
72548;BME280;60570;50.848;6.776;2023-04-21T02:11:00;100255.09;;;10.19;64.36
72548;BME280;60570;50.848;6.776;2023-04-21T02:12:01;100248.75;;;10.18;64.23
72548;BME280;60570;50.848;6.776;2023-04-21T02:13:03;100258.69;;;10.19;64.71
72548;BME280;60570;50.848;6.776;2023-04-21T02:14:04;100248.25;;;10.16;64.37
72548;BME280;60570;50.848;6.776;2023-04-21T02:15:06;100253.81;;;10.16;64.62
72548;BME280;60570;50.848;6.776;2023-04-21T02:16:07;100247.47;;;10.16;64.60
72548;BME280;60570;50.848;6.776;2023-04-21T02:17:09;100258.56;;;10.16;64.55
72548;BME280;60570;50.848;6.776;2023-04-21T02:18:09;100252.22;;;10.15;64.55
72548;BME280;60570;50.848;6.776;2023-04-21T02:19:12;100254.16;;;10.15;64.73
72548;BME280;60570;50.848;6.776;2023-04-21T02:20:13;100254.97;;;10.15;64.78
72548;BME280;60570;50.848;6.776;2023-04-21T02:21:15;100252.22;;;10.15;64.22
72548;BME280;60570;50.848;6.776;2023-04-21T02:22:15;100253.03;;;10.16;64.85
72548;BME280;60570;50.848;6.776;2023-04-21T02:23:18;100255.44;;;10.17;64.46
72548;BME280;60570;50.848;6.776;2023-04-21T02:24:19;100259.72;;;10.15;64.49
72548;BME280;60570;50.848;6.776;2023-04-21T02:25:21;100255.31;;;10.14;64.57
72548;BME280;60570;50.848;6.776;2023-04-21T02:26:21;100256.94;;;10.15;64.72
72548;BME280;60570;50.848;6.776;2023-04-21T02:27:23;100262.84;;;10.13;64.80
72548;BME280;60570;50.848;6.776;2023-04-21T02:28:24;100256.94;;;10.15;64.48
72548;BME280;60570;50.848;6.776;2023-04-21T02:29:25;100256.94;;;10.15;64.37
72548;BME280;60570;50.848;6.776;2023-04-21T02:30:26;100260.41;;;10.12;64.66
72548;BME280;60570;50.848;6.776;2023-04-21T02:31:28;100262.00;;;10.13;64.32
72548;BME280;60570;50.848;6.776;2023-04-21T02:32:29;100254.84;;;10.12;64.65
72548;BME280;60570;50.848;6.776;2023-04-21T02:33:30;100249.31;;;10.12;64.82
72548;BME280;60570;50.848;6.776;2023-04-21T02:34:31;100260.06;;;10.13;64.78
72548;BME280;60570;50.848;6.776;2023-04-21T02:35:33;100258.75;;;10.11;64.51
72548;BME280;60570;50.848;6.776;2023-04-21T02:36:34;100258.44;;;10.12;64.67
72548;BME280;60570;50.848;6.776;2023-04-21T02:37:35;100260.41;;;10.12;64.32
72548;BME280;60570;50.848;6.776;2023-04-21T02:38:37;100252.91;;;10.12;64.47
72548;BME280;60570;50.848;6.776;2023-04-21T02:39:39;100256.47;;;10.13;64.40
72548;BME280;60570;50.848;6.776;2023-04-21T02:40:40;100252.91;;;10.12;64.33
72548;BME280;60570;50.848;6.776;2023-04-21T02:41:42;100249.31;;;10.12;64.59
72548;BME280;60570;50.848;6.776;2023-04-21T02:42:42;100258.44;;;10.12;64.27
72548;BME280;60570;50.848;6.776;2023-04-21T02:43:44;100256.00;;;10.11;64.49
72548;BME280;60570;50.848;6.776;2023-04-21T02:44:44;100250.44;;;10.11;64.81
72548;BME280;60570;50.848;6.776;2023-04-21T02:45:46;100246.88;;;10.10;64.75
72548;BME280;60570;50.848;6.776;2023-04-21T02:46:47;100254.03;;;10.11;64.75
72548;BME280;60570;50.848;6.776;2023-04-21T02:47:48;100250.13;;;10.12;64.76
72548;BME280;60570;50.848;6.776;2023-04-21T02:48:49;100253.22;;;10.11;64.70
72548;BME280;60570;50.848;6.776;2023-04-21T02:49:51;100249.66;;;10.10;64.51
72548;BME280;60570;50.848;6.776;2023-04-21T02:50:51;100249.31;;;10.12;64.87
72548;BME280;60570;50.848;6.776;2023-04-21T02:51:53;100257.16;;;10.10;64.78
72548;BME280;60570;50.848;6.776;2023-04-21T02:52:54;100253.22;;;10.11;64.65
72548;BME280;60570;50.848;6.776;2023-04-21T02:53:57;100253.22;;;10.11;64.39
72548;BME280;60570;50.848;6.776;2023-04-21T02:54:58;100254.84;;;10.12;64.74
72548;BME280;60570;50.848;6.776;2023-04-21T02:55:59;100259.59;;;10.11;64.69
72548;BME280;60570;50.848;6.776;2023-04-21T02:57:03;100259.94;;;10.10;64.40
72548;BME280;60570;50.848;6.776;2023-04-21T02:58:05;100259.94;;;10.10;64.48
72548;BME280;60570;50.848;6.776;2023-04-21T02:59:06;100255.19;;;10.10;64.56
72548;BME280;60570;50.848;6.776;2023-04-21T03:00:09;100259.41;;;10.08;64.49
72548;BME280;60570;50.848;6.776;2023-04-21T03:01:13;100256.66;;;10.08;64.90
72548;BME280;60570;50.848;6.776;2023-04-21T03:02:16;100257.78;;;10.07;65.04
72548;BME280;60570;50.848;6.776;2023-04-21T03:03:16;100250.63;;;10.06;64.79
72548;BME280;60570;50.848;6.776;2023-04-21T03:04:18;100253.75;;;10.04;65.14
72548;BME280;60570;50.848;6.776;2023-04-21T03:05:19;100256.16;;;10.06;64.76
72548;BME280;60570;50.848;6.776;2023-04-21T03:06:20;100257.31;;;10.05;65.04
72548;BME280;60570;50.848;6.776;2023-04-21T03:07:21;100251.44;;;10.06;64.80
72548;BME280;60570;50.848;6.776;2023-04-21T03:08:23;100255.00;;;10.07;64.65
72548;BME280;60570;50.848;6.776;2023-04-21T03:09:25;100250.16;;;10.04;65.05
72548;BME280;60570;50.848;6.776;2023-04-21T03:10:27;100259.28;;;10.04;64.92
72548;BME280;60570;50.848;6.776;2023-04-21T03:11:27;100248.19;;;10.04;64.56
72548;BME280;60570;50.848;6.776;2023-04-21T03:12:29;100248.50;;;10.03;64.68
72548;BME280;60570;50.848;6.776;2023-04-21T03:13:30;100252.91;;;10.04;64.59
72548;BME280;60570;50.848;6.776;2023-04-21T03:14:31;100250.50;;;10.02;65.03
72548;BME280;60570;50.848;6.776;2023-04-21T03:15:32;100249.31;;;10.03;65.28
72548;BME280;60570;50.848;6.776;2023-04-21T03:16:34;100249.66;;;10.02;64.71
72548;BME280;60570;50.848;6.776;2023-04-21T03:17:34;100248.06;;;10.01;65.06
72548;BME280;60570;50.848;6.776;2023-04-21T03:18:36;100245.72;;;10.03;64.93
72548;BME280;60570;50.848;6.776;2023-04-21T03:19:37;100252.09;;;10.03;64.59
72548;BME280;60570;50.848;6.776;2023-04-21T03:20:39;100250.50;;;10.02;64.84
72548;BME280;60570;50.848;6.776;2023-04-21T03:21:40;100258.81;;;10.02;65.10
72548;BME280;60570;50.848;6.776;2023-04-21T03:22:41;100250.00;;;10.00;65.18
72548;BME280;60570;50.848;6.776;2023-04-21T03:23:42;100250.00;;;10.00;64.94
72548;BME280;60570;50.848;6.776;2023-04-21T03:24:46;100252.78;;;10.00;64.59
72548;BME280;60570;50.848;6.776;2023-04-21T03:25:46;100249.66;;;10.02;64.96
72548;BME280;60570;50.848;6.776;2023-04-21T03:26:48;100248.84;;;10.01;64.87
72548;BME280;60570;50.848;6.776;2023-04-21T03:27:49;100250.84;;;10.01;64.86
72548;BME280;60570;50.848;6.776;2023-04-21T03:28:50;100253.59;;;10.01;64.69
72548;BME280;60570;50.848;6.776;2023-04-21T03:29:51;100253.13;;;9.99;64.89
72548;BME280;60570;50.848;6.776;2023-04-21T03:30:53;100255.91;;;9.99;64.75
72548;BME280;60570;50.848;6.776;2023-04-21T03:31:53;100262.25;;;9.99;64.70
72548;BME280;60570;50.848;6.776;2023-04-21T03:32:55;100262.25;;;9.99;64.96
72548;BME280;60570;50.848;6.776;2023-04-21T03:33:56;100269.44;;;10.00;64.87
72548;BME280;60570;50.848;6.776;2023-04-21T03:34:57;100263.88;;;10.00;64.82
72548;BME280;60570;50.848;6.776;2023-04-21T03:35:58;100263.06;;;10.00;65.06
72548;BME280;60570;50.848;6.776;2023-04-21T03:37:01;100255.09;;;9.98;64.78
72548;BME280;60570;50.848;6.776;2023-04-21T03:38:05;100250.34;;;9.99;64.99
72548;BME280;60570;50.848;6.776;2023-04-21T03:39:08;100254.25;;;9.98;64.71
72548;BME280;60570;50.848;6.776;2023-04-21T03:40:15;100265.38;;;9.98;65.21
72548;BME280;60570;50.848;6.776;2023-04-21T03:41:16;100258.22;;;9.97;64.98
72548;BME280;60570;50.848;6.776;2023-04-21T03:42:17;100264.88;;;9.95;65.35
72548;BME280;60570;50.848;6.776;2023-04-21T03:43:18;100263.75;;;9.97;65.22
72548;BME280;60570;50.848;6.776;2023-04-21T03:44:20;100259.34;;;9.95;65.48
72548;BME280;60570;50.848;6.776;2023-04-21T03:45:20;100260.97;;;9.97;65.03
72548;BME280;60570;50.848;6.776;2023-04-21T03:46:23;100253.78;;;9.95;65.10
72548;BME280;60570;50.848;6.776;2023-04-21T03:47:24;100256.56;;;9.95;64.85
72548;BME280;60570;50.848;6.776;2023-04-21T03:48:26;100257.72;;;9.94;64.92
72548;BME280;60570;50.848;6.776;2023-04-21T03:49:27;100264.06;;;9.95;65.25
72548;BME280;60570;50.848;6.776;2023-04-21T03:50:29;100264.06;;;9.95;65.10
72548;BME280;60570;50.848;6.776;2023-04-21T03:51:30;100268.00;;;9.94;64.87
72548;BME280;60570;50.848;6.776;2023-04-21T03:52:32;100266.38;;;9.93;65.19
72548;BME280;60570;50.848;6.776;2023-04-21T03:53:33;100266.38;;;9.93;65.38
72548;BME280;60570;50.848;6.776;2023-04-21T03:54:35;100273.91;;;9.92;65.05
72548;BME280;60570;50.848;6.776;2023-04-21T03:55:37;100270.31;;;9.92;65.05
72548;BME280;60570;50.848;6.776;2023-04-21T03:56:39;100261.97;;;9.92;65.25
72548;BME280;60570;50.848;6.776;2023-04-21T03:57:40;100265.56;;;9.92;65.22
72548;BME280;60570;50.848;6.776;2023-04-21T03:58:42;100271.13;;;9.92;64.86
72548;BME280;60570;50.848;6.776;2023-04-21T03:59:43;100261.97;;;9.92;64.55
72548;BME280;60570;50.848;6.776;2023-04-21T04:00:45;100271.13;;;9.92;64.98
72548;BME280;60570;50.848;6.776;2023-04-21T04:01:46;100261.97;;;9.92;64.85
72548;BME280;60570;50.848;6.776;2023-04-21T04:02:50;100268.34;;;9.92;64.81
72548;BME280;60570;50.848;6.776;2023-04-21T04:03:53;100268.66;;;9.91;64.88
72548;BME280;60570;50.848;6.776;2023-04-21T04:04:56;100261.16;;;9.91;64.94
72548;BME280;60570;50.848;6.776;2023-04-21T04:05:57;100266.72;;;9.91;64.53
72548;BME280;60570;50.848;6.776;2023-04-21T04:07:00;100259.06;;;9.88;64.82
72548;BME280;60570;50.848;6.776;2023-04-21T04:08:01;100259.88;;;9.89;64.92
72548;BME280;60570;50.848;6.776;2023-04-21T04:09:03;100259.56;;;9.90;64.88
72548;BME280;60570;50.848;6.776;2023-04-21T04:10:05;100258.38;;;9.91;65.04
72548;BME280;60570;50.848;6.776;2023-04-21T04:11:11;100259.88;;;9.89;64.88
72548;BME280;60570;50.848;6.776;2023-04-21T04:12:13;100255.13;;;9.89;64.83
72548;BME280;60570;50.848;6.776;2023-04-21T04:13:17;100261.50;;;9.90;64.54
72548;BME280;60570;50.848;6.776;2023-04-21T04:14:19;100257.91;;;9.89;64.70
72548;BME280;60570;50.848;6.776;2023-04-21T04:15:23;100265.75;;;9.87;65.24
72548;BME280;60570;50.848;6.776;2023-04-21T04:16:25;100259.88;;;9.89;64.84
72548;BME280;60570;50.848;6.776;2023-04-21T04:17:28;100260.22;;;9.87;65.07
72548;BME280;60570;50.848;6.776;2023-04-21T04:18:30;100251.88;;;9.87;64.91
72548;BME280;60570;50.848;6.776;2023-04-21T04:19:34;100258.25;;;9.88;65.34
72548;BME280;60570;50.848;6.776;2023-04-21T04:20:36;100272.47;;;9.86;65.22
72548;BME280;60570;50.848;6.776;2023-04-21T04:21:40;100266.91;;;9.86;64.98
72548;BME280;60570;50.848;6.776;2023-04-21T04:22:42;100271.66;;;9.86;64.73
72548;BME280;60570;50.848;6.776;2023-04-21T04:23:45;100262.50;;;9.85;65.29
72548;BME280;60570;50.848;6.776;2023-04-21T04:24:48;100269.69;;;9.86;64.86
72548;BME280;60570;50.848;6.776;2023-04-21T04:25:51;100269.69;;;9.86;64.74
72548;BME280;60570;50.848;6.776;2023-04-21T04:26:54;100259.72;;;9.85;65.07
72548;BME280;60570;50.848;6.776;2023-04-21T04:27:57;100262.50;;;9.85;64.84
72548;BME280;60570;50.848;6.776;2023-04-21T04:28:58;100265.28;;;9.85;64.97
72548;BME280;60570;50.848;6.776;2023-04-21T04:30:01;100262.50;;;9.85;64.86
72548;BME280;60570;50.848;6.776;2023-04-21T04:31:04;100260.56;;;9.86;65.12
72548;BME280;60570;50.848;6.776;2023-04-21T04:32:07;100270.03;;;9.85;64.88
72548;BME280;60570;50.848;6.776;2023-04-21T04:33:10;100261.72;;;9.85;64.92
72548;BME280;60570;50.848;6.776;2023-04-21T04:34:12;100263.66;;;9.84;64.67
72548;BME280;60570;50.848;6.776;2023-04-21T04:35:15;100262.03;;;9.83;64.92
72548;BME280;60570;50.848;6.776;2023-04-21T04:36:16;100270.34;;;9.83;64.91
72548;BME280;60570;50.848;6.776;2023-04-21T04:37:18;100267.56;;;9.83;65.12
72548;BME280;60570;50.848;6.776;2023-04-21T04:38:22;100264.00;;;9.83;64.78
72548;BME280;60570;50.848;6.776;2023-04-21T04:39:24;100261.25;;;9.83;64.73
72548;BME280;60570;50.848;6.776;2023-04-21T04:40:28;100259.25;;;9.83;65.13
72548;BME280;60570;50.848;6.776;2023-04-21T04:41:30;100258.78;;;9.81;64.77
72548;BME280;60570;50.848;6.776;2023-04-21T04:42:34;100255.22;;;9.81;65.20
72548;BME280;60570;50.848;6.776;2023-04-21T04:43:36;100261.72;;;9.85;64.65
72548;BME280;60570;50.848;6.776;2023-04-21T04:44:41;100260.06;;;9.84;64.59
72548;BME280;60570;50.848;6.776;2023-04-21T04:45:44;100261.25;;;9.83;64.66
72548;BME280;60570;50.848;6.776;2023-04-21T04:46:51;100261.25;;;9.83;65.16
72548;BME280;60570;50.848;6.776;2023-04-21T04:47:54;100263.19;;;9.82;65.09
72548;BME280;60570;50.848;6.776;2023-04-21T04:48:59;100259.59;;;9.82;65.01
72548;BME280;60570;50.848;6.776;2023-04-21T04:50:03;100249.66;;;9.81;65.34
72548;BME280;60570;50.848;6.776;2023-04-21T04:51:10;100259.59;;;9.82;65.09
72548;BME280;60570;50.848;6.776;2023-04-21T04:52:13;100258.47;;;9.83;64.91
72548;BME280;60570;50.848;6.776;2023-04-21T04:53:17;100255.69;;;9.83;65.07
72548;BME280;60570;50.848;6.776;2023-04-21T04:54:20;100259.94;;;9.80;64.78
72548;BME280;60570;50.848;6.776;2023-04-21T04:55:22;100258.00;;;9.81;64.61
72548;BME280;60570;50.848;6.776;2023-04-21T04:56:23;100260.75;;;9.81;64.93
72548;BME280;60570;50.848;6.776;2023-04-21T04:57:24;100259.94;;;9.80;64.65
72548;BME280;60570;50.848;6.776;2023-04-21T04:58:28;100267.09;;;9.81;64.42
72548;BME280;60570;50.848;6.776;2023-04-21T04:59:30;100257.16;;;9.80;64.67
72548;BME280;60570;50.848;6.776;2023-04-21T05:00:31;100256.81;;;9.82;64.64
72548;BME280;60570;50.848;6.776;2023-04-21T05:01:34;100265.16;;;9.82;64.76
72548;BME280;60570;50.848;6.776;2023-04-21T05:02:36;100265.16;;;9.82;64.75
72548;BME280;60570;50.848;6.776;2023-04-21T05:03:40;100263.19;;;9.82;64.67
72548;BME280;60570;50.848;6.776;2023-04-21T05:04:41;100263.19;;;9.82;64.71
72548;BME280;60570;50.848;6.776;2023-04-21T05:05:44;100265.50;;;9.80;64.96
72548;BME280;60570;50.848;6.776;2023-04-21T05:06:45;100265.50;;;9.80;64.56
72548;BME280;60570;50.848;6.776;2023-04-21T05:07:48;100271.50;;;9.82;64.48
72548;BME280;60570;50.848;6.776;2023-04-21T05:08:51;100272.16;;;9.79;64.93
72548;BME280;60570;50.848;6.776;2023-04-21T05:09:55;100269.88;;;9.81;64.53
72548;BME280;60570;50.848;6.776;2023-04-21T05:11:01;100265.50;;;9.80;64.51
72548;BME280;60570;50.848;6.776;2023-04-21T05:12:05;100265.50;;;9.80;64.69
72548;BME280;60570;50.848;6.776;2023-04-21T05:13:06;100274.94;;;9.79;64.74
72548;BME280;60570;50.848;6.776;2023-04-21T05:14:09;100261.41;;;9.78;64.84
72548;BME280;60570;50.848;6.776;2023-04-21T05:15:10;100271.38;;;9.79;64.46
72548;BME280;60570;50.848;6.776;2023-04-21T05:16:13;100272.16;;;9.79;64.75
72548;BME280;60570;50.848;6.776;2023-04-21T05:17:16;100273.81;;;9.80;64.55
72548;BME280;60570;50.848;6.776;2023-04-21T05:18:20;100276.94;;;9.79;64.47
72548;BME280;60570;50.848;6.776;2023-04-21T05:19:22;100274.16;;;9.79;64.43
72548;BME280;60570;50.848;6.776;2023-04-21T05:20:27;100278.53;;;9.80;64.51
72548;BME280;60570;50.848;6.776;2023-04-21T05:21:30;100272.16;;;9.79;64.81
72548;BME280;60570;50.848;6.776;2023-04-21T05:22:36;100272.16;;;9.79;64.61
72548;BME280;60570;50.848;6.776;2023-04-21T05:23:41;100272.50;;;9.78;64.54
72548;BME280;60570;50.848;6.776;2023-04-21T05:24:44;100275.28;;;9.78;64.54